MSC Federica — HPQE — position and weather

sailwx.info

Track history (hours):
 
Tides and Currents Weather Stations Pressure Air Temp Water Temp Dewpoint Dewpoint Depression Visibility Wind Speed Wind Dir Waves Ship Positions

MSC Federica

Last reported at 2014-Jul-29 04:07 UTC. Time now 2014-Jul-29 08:47 UTC.
Position N 26°31' W 078°46'.

Length 294 m; draft 10.4 m.

Type: Ship (hazmat cat B). MMSI: 357363000.

Date/timePositionNaut miles runAvg speedWind from/ knotsBaromVisibWave heightAir tempDewpointWater temp
2014-Jul-29 04:07N 26°31' W 078°46'0 0.0
2014-Jul-29 03:31N 26°31' W 078°46'0 0.0
2014-Jul-29 02:30N 26°31' W 078°46'0 0.0
2014-Jul-29 01:30N 26°31' W 078°46'0 0.0
2014-Jul-29 00:30N 26°31' W 078°46'0 0.0
2014-Jul-28 23:33N 26°31' W 078°46'0 0.0
2014-Jul-28 22:33N 26°31' W 078°46'0 0.0
2014-Jul-28 21:30N 26°31' W 078°46'0 0.0
2014-Jul-28 20:30N 26°31' W 078°46'0 0.0
2014-Jul-28 19:33N 26°31' W 078°46'0 0.0
2014-Jul-28 18:33N 26°31' W 078°46'0 0.0
2014-Jul-28 16:24N 26°31' W 078°46'0 0.0
2014-Jul-28 15:12N 26°31' W 078°46'0 0.0
2014-Jul-28 10:12N 26°31' W 078°46'0 0.0
2014-Jul-28 09:33N 26°31' W 078°46'0 0.0
2014-Jul-28 08:33N 26°31' W 078°46'0 0.0
2014-Jul-28 07:30N 26°31' W 078°46'0 0.0
2014-Jul-28 06:33N 26°31' W 078°46'0 0.0
2014-Jul-28 05:33N 26°31' W 078°46'0 0.0
2014-Jul-28 04:33N 26°31' W 078°46'0 0.0
2014-Jul-28 03:33N 26°31' W 078°46'4 3.7
2014-Jul-28 02:33N 26°28' W 078°48'3 3.2
2014-Jul-28 01:30N 26°30' W 078°51'5416.4
2014-Jul-27 22:14N 27°17' W 079°18'  
2014-Jul-25 17:32N 34°45' W 075°41'28419.0
2014-Jul-25 02:33N 39°17' W 074°01'2120.8
2014-Jul-25 01:33N 39°37' W 073°56'2120.7
2014-Jul-25 00:33N 39°58' W 073°52'2320.6
2014-Jul-24 23:27N 40°21' W 073°49'1112.7
2014-Jul-24 22:33N 40°30' W 073°57'1111.3
2014-Jul-24 21:33N 40°39' W 074°06'3 2.5
2014-Jul-24 20:21N 40°41' W 074°09'0 0.0
2014-Jul-24 19:33N 40°41' W 074°09'0 0.0
2014-Jul-24 18:33N 40°41' W 074°09'0 0.0
2014-Jul-24 17:24N 40°41' W 074°09'0 0.0
2014-Jul-24 16:21N 40°41' W 074°09'0 0.0
2014-Jul-24 15:33N 40°41' W 074°09'0 0.0
2014-Jul-24 14:33N 40°41' W 074°09'0 0.0
2014-Jul-24 13:33N 40°41' W 074°09'0 0.0
2014-Jul-24 12:33N 40°41' W 074°09'0 0.0
2014-Jul-24 11:33N 40°41' W 074°09'0 0.0
2014-Jul-24 10:18N 40°41' W 074°09'0 0.0
2014-Jul-24 09:33N 40°41' W 074°09'0 0.0
2014-Jul-24 08:21N 40°41' W 074°09'0 0.0
2014-Jul-24 07:33N 40°41' W 074°09'0 0.0
2014-Jul-24 05:15N 40°41' W 074°09'0 0.0
2014-Jul-24 04:27N 40°41' W 074°09'0 0.0
2014-Jul-24 03:30N 40°41' W 074°09'0 0.0
2014-Jul-24 02:30N 40°41' W 074°09'0 0.0
2014-Jul-24 01:27N 40°41' W 074°09'0 0.0
2014-Jul-24 00:33N 40°41' W 074°09'0 0.0
2014-Jul-23 23:27N 40°41' W 074°09'0 0.0
2014-Jul-23 22:33N 40°41' W 074°09'0 0.0
2014-Jul-23 21:33N 40°41' W 074°09'0 0.0
2014-Jul-23 20:33N 40°41' W 074°09'0 0.0
2014-Jul-23 19:15N 40°41' W 074°09'0 0.0
2014-Jul-23 18:24N 40°41' W 074°09'1 1.2
2014-Jul-23 17:34N 40°40' W 074°08'4 4.3
2014-Jul-23 16:34N 40°38' W 074°03'9 8.7
2014-Jul-23 15:33N 40°30' W 073°58'1110.6
2014-Jul-23 14:33N 40°24' W 073°47'9 9.1
2014-Jul-23 13:32N 40°14' W 073°45'1111.8
2014-Jul-23 12:33N 40°03' W 073°44'1111.3
2014-Jul-23 11:34N 39°52' W 073°43'1414.4
2014-Jul-23 10:33N 39°37' W 073°42'1616.5
2014-Jul-23 09:34N 39°21' W 073°47'1615.9
2014-Jul-23 08:34N 39°06' W 073°54'1 1.1
2014-Jul-23 07:34N 39°05' W 073°54'1 0.6
2014-Jul-23 06:33N 39°05' W 073°54'1 0.5
2014-Jul-23 05:33N 39°04' W 073°53'0 0.4
2014-Jul-23 04:33N 39°04' W 073°53'0 0.2
2014-Jul-23 03:34N 39°04' W 073°53'0 0.2
2014-Jul-23 02:33N 39°04' W 073°53'0 0.5
2014-Jul-23 01:34N 39°04' W 073°53'0 0.5
2014-Jul-23 00:34N 39°03' W 073°54'1 0.5
2014-Jul-22 23:33N 39°03' W 073°54'1 0.6
2014-Jul-22 22:34N 39°02' W 073°54'1 0.7
2014-Jul-22 21:34N 39°02' W 073°54'1 0.7
2014-Jul-22 20:34N 39°01' W 073°54'1 0.8
2014-Jul-22 19:33N 39°00' W 073°54'1 0.8
2014-Jul-22 18:33N 38°60' W 073°53'1 0.7
2014-Jul-22 17:34N 38°59' W 073°52'3 2.5
2014-Jul-22 16:33N 38°57' W 073°54'1717.0
2014-Jul-22 15:33N 38°45' W 074°09'2217.2
2014-Jul-22 14:15N 38°29' W 074°30'1116.1
2014-Jul-22 13:33N 38°28' W 074°44'1817.0
2014-Jul-22 12:31N 38°42' W 074°57'1313.8
2014-Jul-22 11:33N 38°53' W 075°06'1616.4
2014-Jul-22 10:33N 39°08' W 075°14'1515.1
2014-Jul-22 09:33N 39°20' W 075°26'1413.9
2014-Jul-22 08:34N 39°33' W 075°33'1312.9
2014-Jul-22 07:33N 39°46' W 075°29'1211.8
2014-Jul-22 06:33N 39°51' W 075°15'6 5.8
2014-Jul-22 05:33N 39°54' W 075°08'0 0.0
2014-Jul-22 04:33N 39°54' W 075°08'0 0.0
2014-Jul-22 03:33N 39°54' W 075°08'0 0.0
2014-Jul-22 02:33N 39°54' W 075°08'0 0.0
2014-Jul-21 23:21N 39°54' W 075°08'0 0.0
2014-Jul-21 16:20N 39°54' W 075°08'1 0.9
2014-Jul-21 15:32N 39°53' W 075°08'8 7.5
2014-Jul-21 14:30N 39°51' W 075°18'78117.7
2014-Jul-19 18:21N 27°16' W 079°17'5317.8
2014-Jul-19 15:23N 26°31' W 078°47'1 1.2
2014-Jul-19 14:09N 26°32' W 078°46'  
Track history (hours):
 
Tides and Currents Weather Stations Pressure Air Temp Water Temp Dewpoint Dewpoint Depression Visibility Wind Speed Wind Dir Waves Ship Positions

MSC Federica

Last reported at 2014-Jul-29 04:07 UTC. Time now 2014-Jul-29 08:47 UTC.
Position N 26°31' W 078°46'.

Length 294 m; draft 10.4 m.

Type: Ship (hazmat cat B). MMSI: 357363000.

Date/timePositionNaut miles runAvg speedWind from/ knotsBaromVisibWave heightAir tempDewpointWater temp
2014-Jul-29 04:07N 26°31' W 078°46'0 0.0
2014-Jul-29 03:31N 26°31' W 078°46'0 0.0
2014-Jul-29 02:30N 26°31' W 078°46'0 0.0
2014-Jul-29 01:30N 26°31' W 078°46'0 0.0
2014-Jul-29 00:30N 26°31' W 078°46'0 0.0
2014-Jul-28 23:33N 26°31' W 078°46'0 0.0
2014-Jul-28 22:33N 26°31' W 078°46'0 0.0
2014-Jul-28 21:30N 26°31' W 078°46'0 0.0
2014-Jul-28 20:30N 26°31' W 078°46'0 0.0
2014-Jul-28 19:33N 26°31' W 078°46'0 0.0
2014-Jul-28 18:33N 26°31' W 078°46'0 0.0
2014-Jul-28 16:24N 26°31' W 078°46'0 0.0
2014-Jul-28 15:12N 26°31' W 078°46'0 0.0
2014-Jul-28 10:12N 26°31' W 078°46'0 0.0
2014-Jul-28 09:33N 26°31' W 078°46'0 0.0
2014-Jul-28 08:33N 26°31' W 078°46'0 0.0
2014-Jul-28 07:30N 26°31' W 078°46'0 0.0
2014-Jul-28 06:33N 26°31' W 078°46'0 0.0
2014-Jul-28 05:33N 26°31' W 078°46'0 0.0
2014-Jul-28 04:33N 26°31' W 078°46'0 0.0
2014-Jul-28 03:33N 26°31' W 078°46'4 3.7
2014-Jul-28 02:33N 26°28' W 078°48'3 3.2
2014-Jul-28 01:30N 26°30' W 078°51'5416.4
2014-Jul-27 22:14N 27°17' W 079°18'  
2014-Jul-25 17:32N 34°45' W 075°41'28419.0
2014-Jul-25 02:33N 39°17' W 074°01'2120.8
2014-Jul-25 01:33N 39°37' W 073°56'2120.7
2014-Jul-25 00:33N 39°58' W 073°52'2320.6
2014-Jul-24 23:27N 40°21' W 073°49'1112.7
2014-Jul-24 22:33N 40°30' W 073°57'1111.3
2014-Jul-24 21:33N 40°39' W 074°06'3 2.5
2014-Jul-24 20:21N 40°41' W 074°09'0 0.0
2014-Jul-24 19:33N 40°41' W 074°09'0 0.0
2014-Jul-24 18:33N 40°41' W 074°09'0 0.0
2014-Jul-24 17:24N 40°41' W 074°09'0 0.0
2014-Jul-24 16:21N 40°41' W 074°09'0 0.0
2014-Jul-24 15:33N 40°41' W 074°09'0 0.0
2014-Jul-24 14:33N 40°41' W 074°09'0 0.0
2014-Jul-24 13:33N 40°41' W 074°09'0 0.0
2014-Jul-24 12:33N 40°41' W 074°09'0 0.0
2014-Jul-24 11:33N 40°41' W 074°09'0 0.0
2014-Jul-24 10:18N 40°41' W 074°09'0 0.0
2014-Jul-24 09:33N 40°41' W 074°09'0 0.0
2014-Jul-24 08:21N 40°41' W 074°09'0 0.0
2014-Jul-24 07:33N 40°41' W 074°09'0 0.0
2014-Jul-24 05:15N 40°41' W 074°09'0 0.0
2014-Jul-24 04:27N 40°41' W 074°09'0 0.0
2014-Jul-24 03:30N 40°41' W 074°09'0 0.0
2014-Jul-24 02:30N 40°41' W 074°09'0 0.0
2014-Jul-24 01:27N 40°41' W 074°09'0 0.0
2014-Jul-24 00:33N 40°41' W 074°09'0 0.0
2014-Jul-23 23:27N 40°41' W 074°09'0 0.0
2014-Jul-23 22:33N 40°41' W 074°09'0 0.0
2014-Jul-23 21:33N 40°41' W 074°09'0 0.0
2014-Jul-23 20:33N 40°41' W 074°09'0 0.0
2014-Jul-23 19:15N 40°41' W 074°09'0 0.0
2014-Jul-23 18:24N 40°41' W 074°09'1 1.2
2014-Jul-23 17:34N 40°40' W 074°08'4 4.3
2014-Jul-23 16:34N 40°38' W 074°03'9 8.7
2014-Jul-23 15:33N 40°30' W 073°58'1110.6
2014-Jul-23 14:33N 40°24' W 073°47'9 9.1
2014-Jul-23 13:32N 40°14' W 073°45'1111.8
2014-Jul-23 12:33N 40°03' W 073°44'1111.3
2014-Jul-23 11:34N 39°52' W 073°43'1414.4
2014-Jul-23 10:33N 39°37' W 073°42'1616.5
2014-Jul-23 09:34N 39°21' W 073°47'1615.9
2014-Jul-23 08:34N 39°06' W 073°54'1 1.1
2014-Jul-23 07:34N 39°05' W 073°54'1 0.6
2014-Jul-23 06:33N 39°05' W 073°54'1 0.5
2014-Jul-23 05:33N 39°04' W 073°53'0 0.4
2014-Jul-23 04:33N 39°04' W 073°53'0 0.2
2014-Jul-23 03:34N 39°04' W 073°53'0 0.2
2014-Jul-23 02:33N 39°04' W 073°53'0 0.5
2014-Jul-23 01:34N 39°04' W 073°53'0 0.5
2014-Jul-23 00:34N 39°03' W 073°54'1 0.5
2014-Jul-22 23:33N 39°03' W 073°54'1 0.6
2014-Jul-22 22:34N 39°02' W 073°54'1 0.7
2014-Jul-22 21:34N 39°02' W 073°54'1 0.7
2014-Jul-22 20:34N 39°01' W 073°54'1 0.8
2014-Jul-22 19:33N 39°00' W 073°54'1 0.8
2014-Jul-22 18:33N 38°60' W 073°53'1 0.7
2014-Jul-22 17:34N 38°59' W 073°52'3 2.5
2014-Jul-22 16:33N 38°57' W 073°54'1717.0
2014-Jul-22 15:33N 38°45' W 074°09'2217.2
2014-Jul-22 14:15N 38°29' W 074°30'1116.1
2014-Jul-22 13:33N 38°28' W 074°44'1817.0
2014-Jul-22 12:31N 38°42' W 074°57'1313.8
2014-Jul-22 11:33N 38°53' W 075°06'1616.4
2014-Jul-22 10:33N 39°08' W 075°14'1515.1
2014-Jul-22 09:33N 39°20' W 075°26'1413.9
2014-Jul-22 08:34N 39°33' W 075°33'1312.9
2014-Jul-22 07:33N 39°46' W 075°29'1211.8
2014-Jul-22 06:33N 39°51' W 075°15'6 5.8
2014-Jul-22 05:33N 39°54' W 075°08'0 0.0
2014-Jul-22 04:33N 39°54' W 075°08'0 0.0
2014-Jul-22 03:33N 39°54' W 075°08'0 0.0
2014-Jul-22 02:33N 39°54' W 075°08'0 0.0
2014-Jul-21 23:21N 39°54' W 075°08'0 0.0
2014-Jul-21 16:20N 39°54' W 075°08'1 0.9
2014-Jul-21 15:32N 39°53' W 075°08'8 7.5
2014-Jul-21 14:30N 39°51' W 075°18'78117.7
2014-Jul-19 18:21N 27°16' W 079°17'5317.8
2014-Jul-19 15:23N 26°31' W 078°47'1 1.2
2014-Jul-19 14:09N 26°32' W 078°46'  

Dump ship's entire track history